createdAt,value
2023-03-26T00:01:05.502Z,5
2023-03-26T00:16:04.762Z,4
2023-03-26T00:31:05.201Z,3
2023-03-26T00:46:05.445Z,3
2023-03-26T01:01:05.589Z,3
2023-03-26T01:16:05.401Z,3
2023-03-26T01:31:05.007Z,5
2023-03-26T01:46:05.481Z,5
2023-03-26T02:01:05.703Z,3
2023-03-26T02:16:05.020Z,3
2023-03-26T02:31:04.924Z,2
2023-03-26T02:46:05.699Z,2
2023-03-26T03:01:05.708Z,2
2023-03-26T03:16:05.751Z,3
2023-03-26T03:31:05.488Z,2
2023-03-26T03:46:04.735Z,3
2023-03-26T04:01:05.109Z,4
2023-03-26T04:16:04.725Z,3
2023-03-26T04:31:04.927Z,3
2023-03-26T04:46:05.591Z,3
2023-03-26T05:01:09.731Z,2
2023-03-26T05:16:05.429Z,2
2023-03-26T05:31:04.728Z,5
2023-03-26T05:46:05.514Z,2
2023-03-26T06:01:04.870Z,2
2023-03-26T06:16:05.230Z,3
2023-03-26T06:31:05.725Z,4
2023-03-26T06:46:05.078Z,2
2023-03-26T07:16:04.713Z,3
2023-03-26T07:31:05.335Z,3
2023-03-26T07:46:04.917Z,5
2023-03-26T08:01:05.269Z,5
2023-03-26T08:16:05.806Z,2
2023-03-26T08:31:05.608Z,3
2023-03-26T08:46:04.913Z,6
2023-03-26T09:01:05.273Z,3
2023-03-26T09:16:05.657Z,4
2023-03-26T09:31:05.326Z,2
2023-03-26T09:46:05.533Z,3
2023-03-26T10:01:04.611Z,10
2023-03-26T10:16:05.098Z,3
2023-03-26T10:31:04.687Z,1
2023-03-26T10:46:05.232Z,3
2023-03-26T11:01:06.176Z,3
2023-03-26T11:16:05.465Z,2
2023-03-26T11:31:05.545Z,1
2023-03-26T11:46:05.468Z,1
2023-03-26T12:01:05.508Z,1
2023-03-26T12:16:05.743Z,1
2023-03-26T12:31:05.549Z,2
2023-03-26T12:46:04.012Z,3
2023-03-26T13:01:05.295Z,1
2023-03-26T13:16:04.923Z,1
2023-03-26T13:31:05.509Z,2
2023-03-26T13:46:05.743Z,3
2023-03-26T14:01:04.964Z,3
2023-03-26T14:16:05.329Z,3
2023-03-26T14:31:05.558Z,3
2023-03-26T14:46:04.798Z,3
2023-03-26T15:01:05.644Z,6
2023-03-26T15:16:05.641Z,5
2023-03-26T15:31:04.706Z,5
2023-03-26T15:46:05.416Z,5
2023-03-26T16:01:04.555Z,3
2023-03-26T16:16:04.848Z,12
2023-03-26T16:31:04.689Z,4
2023-03-26T16:46:04.520Z,4
2023-03-26T17:01:05.249Z,7
2023-03-26T17:16:04.511Z,15
2023-03-26T17:31:04.994Z,9
2023-03-26T17:46:05.515Z,9
2023-03-26T18:01:05.319Z,10
2023-03-26T18:16:04.698Z,17
2023-03-26T18:31:06.616Z,9
2023-03-26T18:46:04.991Z,9
2023-03-26T19:01:05.136Z,3
2023-03-26T19:16:04.607Z,3
2023-03-26T19:31:04.727Z,11
2023-03-26T19:46:05.055Z,12
2023-03-26T20:01:04.879Z,16
2023-03-26T20:16:06.365Z,7
2023-03-26T20:31:04.846Z,6
2023-03-26T20:46:05.324Z,8
2023-03-26T21:01:04.743Z,9
2023-03-26T21:16:05.184Z,14
2023-03-26T21:31:05.305Z,12
2023-03-26T21:46:04.810Z,9
2023-03-26T22:01:05.105Z,8
2023-03-26T22:16:05.075Z,7
2023-03-26T22:31:05.547Z,8
2023-03-26T22:46:05.379Z,9
2023-03-26T23:01:07.361Z,8
2023-03-26T23:16:05.649Z,8
2023-03-26T23:31:04.928Z,9
2023-03-26T23:46:05.308Z,11
